Time;durP1;ratioP1;P1;durP2;ratioP2;P2;SDS_P1;SDS_P2;PMS_P1;PMS_P2;Temp;Humidity;BMP_temperature;BMP_pressure;BME280_temperature;BME280_humidity;BME280_pressure;Samples;Min_cycle;Max_cycle;Signal;HPM_P1;HPM_P2
2023/06/30 00:00:31;;;;;;;4.18;2.20;;;;;;;;;;5095685;28;20544;-71
2023/06/30 00:02:56;;;;;;;3.10;2.03;;;;;;;;;;5095981;28;20471;-71
2023/06/30 00:05:22;;;;;;;2.72;2.13;;;;;;;;;;5095592;28;20724;-71
2023/06/30 00:07:48;;;;;;;3.30;2.33;;;;;;;;;;5095265;28;20078;-71
2023/06/30 00:10:13;;;;;;;2.45;2.00;;;;;;;;;;5095505;28;20024;-72
2023/06/30 00:12:38;;;;;;;3.53;2.10;;;;;;;;;;5095232;28;20483;-71
2023/06/30 00:15:04;;;;;;;3.03;2.10;;;;;;;;;;5095360;28;20281;-71
2023/06/30 00:17:30;;;;;;;3.70;2.30;;;;;;;;;;5094983;28;20256;-71
2023/06/30 00:19:57;;;;;;;4.93;2.03;;;;;;;;;;5095586;28;20104;-71
2023/06/30 00:22:22;;;;;;;3.65;2.20;;;;;;;;;;5095274;28;20020;-70
2023/06/30 00:24:55;;;;;;;3.97;2.40;;;;;;;;;;5095041;28;20390;-72
2023/06/30 00:27:21;;;;;;;3.72;2.33;;;;;;;;;;5094865;28;20472;-71
2023/06/30 00:29:46;;;;;;;2.58;1.90;;;;;;;;;;5095033;28;20158;-72
2023/06/30 00:32:11;;;;;;;4.70;2.47;;;;;;;;;;5094838;28;20024;-71
2023/06/30 00:34:36;;;;;;;2.50;2.10;;;;;;;;;;5094755;28;20345;-70
2023/06/30 00:37:02;;;;;;;3.23;2.27;;;;;;;;;;5094960;28;20256;-71
2023/06/30 00:39:27;;;;;;;4.15;2.22;;;;;;;;;;5094585;28;20296;-70
2023/06/30 00:41:52;;;;;;;3.60;2.10;;;;;;;;;;5094976;28;20024;-71
2023/06/30 00:44:17;;;;;;;4.03;2.22;;;;;;;;;;5094948;28;20263;-71
2023/06/30 00:46:43;;;;;;;4.03;2.10;;;;;;;;;;5094805;28;20028;-71
2023/06/30 00:49:08;;;;;;;5.37;2.50;;;;;;;;;;5094507;28;20264;-71
2023/06/30 00:51:34;;;;;;;3.45;2.15;;;;;;;;;;5094426;28;20260;-71
2023/06/30 00:53:59;;;;;;;2.70;2.03;;;;;;;;;;5094703;28;20119;-71
2023/06/30 00:56:24;;;;;;;2.80;2.00;;;;;;;;;;5094375;28;20440;-71
2023/06/30 00:58:49;;;;;;;5.23;2.13;;;;;;;;;;5094261;28;20115;-70
2023/06/30 01:01:29;;;;;;;2.60;2.10;;;;;;;;;;5094352;28;20269;-71
2023/06/30 01:04:06;;;;;;;4.25;2.03;;;;;;;;;;5094643;28;20249;-71
2023/06/30 01:06:58;;;;;;;2.85;2.00;;;;;;;;;;5094542;28;20111;-71
2023/06/30 01:09:27;;;;;;;4.30;2.00;;;;;;;;;;5094045;28;20032;-71
2023/06/30 01:11:53;;;;;;;4.70;2.45;;;;;;;;;;5094136;28;20081;-71
2023/06/30 01:14:18;;;;;;;6.25;1.98;;;;;;;;;;5094254;28;20020;-71
2023/06/30 01:16:45;;;;;;;5.40;2.22;;;;;;;;;;5094001;28;20031;-71
2023/06/30 01:19:30;;;;;;;3.25;2.22;;;;;;;;;;5093983;28;20020;-71
2023/06/30 01:22:03;;;;;;;3.13;2.10;;;;;;;;;;5094244;28;20387;-71
2023/06/30 01:24:33;;;;;;;4.85;2.20;;;;;;;;;;5093881;28;20072;-70
2023/06/30 01:26:59;;;;;;;3.25;1.92;;;;;;;;;;5093883;28;20097;-71
2023/06/30 01:29:24;;;;;;;3.38;2.13;;;;;;;;;;5093680;28;20471;-71
2023/06/30 01:31:49;;;;;;;3.25;2.00;;;;;;;;;;5093955;28;20431;-71
2023/06/30 01:34:14;;;;;;;3.83;1.95;;;;;;;;;;5093577;28;20031;-70
2023/06/30 01:36:40;;;;;;;3.23;2.10;;;;;;;;;;5093953;28;20509;-71
2023/06/30 01:39:05;;;;;;;2.35;1.92;;;;;;;;;;5093486;28;20256;-72
2023/06/30 01:41:30;;;;;;;3.47;2.20;;;;;;;;;;5094103;28;20064;-70
2023/06/30 01:43:56;;;;;;;3.22;2.17;;;;;;;;;;5093496;28;20264;-71
2023/06/30 01:46:22;;;;;;;6.03;2.03;;;;;;;;;;5093500;28;20028;-70
2023/06/30 01:48:47;;;;;;;6.75;2.10;;;;;;;;;;5093333;28;20031;-70
2023/06/30 01:51:13;;;;;;;3.78;2.30;;;;;;;;;;5093373;28;20446;-71
2023/06/30 01:53:39;;;;;;;4.10;2.30;;;;;;;;;;5093620;28;20028;-70
2023/06/30 01:56:04;;;;;;;3.08;2.15;;;;;;;;;;5093321;28;20478;-70
2023/06/30 01:58:31;;;;;;;3.63;2.13;;;;;;;;;;5093487;28;20475;-69
2023/06/30 02:00:56;;;;;;;3.83;2.25;;;;;;;;;;5093341;28;20031;-72
2023/06/30 02:03:21;;;;;;;4.38;2.10;;;;;;;;;;5092553;28;20418;-71
2023/06/30 02:05:47;;;;;;;3.33;2.17;;;;;;;;;;5093742;28;20027;-70
2023/06/30 02:08:12;;;;;;;3.20;2.27;;;;;;;;;;5093050;28;20269;-71
2023/06/30 02:10:37;;;;;;;3.45;2.30;;;;;;;;;;5093888;28;20271;-71
2023/06/30 02:13:02;;;;;;;6.40;2.30;;;;;;;;;;5093364;28;20020;-70
2023/06/30 02:15:28;;;;;;;4.82;2.20;;;;;;;;;;5093157;28;20276;-71
2023/06/30 02:17:53;;;;;;;2.63;1.90;;;;;;;;;;5091806;28;20028;-71
2023/06/30 02:20:19;;;;;;;2.38;1.90;;;;;;;;;;5093161;28;20263;-71
2023/06/30 02:22:44;;;;;;;3.40;2.25;;;;;;;;;;5092939;28;20027;-70
2023/06/30 02:25:09;;;;;;;5.43;2.22;;;;;;;;;;5093320;28;20012;-70
2023/06/30 02:27:34;;;;;;;3.90;2.42;;;;;;;;;;5091520;28;20615;-72
2023/06/30 02:30:05;;;;;;;3.40;2.10;;;;;;;;;;5092840;28;20016;-71
2023/06/30 02:32:31;;;;;;;4.63;2.10;;;;;;;;;;5093056;28;20650;-72
2023/06/30 02:34:57;;;;;;;3.30;2.20;;;;;;;;;;5093031;28;20050;-71
2023/06/30 02:37:22;;;;;;;3.28;2.33;;;;;;;;;;5092957;28;20023;-70
2023/06/30 02:39:47;;;;;;;4.03;2.17;;;;;;;;;;5092776;28;20032;-70
2023/06/30 02:42:12;;;;;;;2.53;2.07;;;;;;;;;;5092870;28;20256;-71
2023/06/30 02:44:37;;;;;;;3.67;2.20;;;;;;;;;;5092770;28;20466;-71
2023/06/30 02:47:03;;;;;;;5.30;2.57;;;;;;;;;;5093261;28;20272;-71
2023/06/30 02:49:28;;;;;;;6.60;2.58;;;;;;;;;;5092728;28;20260;-71
2023/06/30 02:51:54;;;;;;;2.80;2.30;;;;;;;;;;5092859;28;20490;-71
2023/06/30 02:54:19;;;;;;;6.30;2.30;;;;;;;;;;5091382;28;20693;-71
2023/06/30 02:56:44;;;;;;;4.57;2.60;;;;;;;;;;5091460;28;20710;-71
2023/06/30 02:59:09;;;;;;;3.47;2.27;;;;;;;;;;5092676;28;20283;-71
2023/06/30 03:01:35;;;;;;;6.03;2.43;;;;;;;;;;5074481;28;20263;-71
2023/06/30 03:04:00;;;;;;;2.80;2.25;;;;;;;;;;5092615;28;20248;-71
2023/06/30 03:06:26;;;;;;;4.15;2.65;;;;;;;;;;5092658;28;20101;-71
2023/06/30 03:08:51;;;;;;;3.55;2.13;;;;;;;;;;5092513;28;20398;-72
2023/06/30 03:11:16;;;;;;;3.97;2.37;;;;;;;;;;5092867;28;20048;-71
2023/06/30 03:13:41;;;;;;;5.30;2.67;;;;;;;;;;5093070;28;20292;-71
2023/06/30 03:16:07;;;;;;;4.57;2.50;;;;;;;;;;5096450;28;20349;-71
2023/06/30 03:18:32;;;;;;;4.05;2.47;;;;;;;;;;5096366;28;20244;-72
2023/06/30 03:20:57;;;;;;;5.25;2.60;;;;;;;;;;5096301;28;20028;-71
2023/06/30 03:23:22;;;;;;;4.23;2.40;;;;;;;;;;5096582;28;20096;-71
2023/06/30 03:25:48;;;;;;;4.57;2.50;;;;;;;;;;5096241;28;20635;-71
2023/06/30 03:28:13;;;;;;;4.28;2.42;;;;;;;;;;5096085;28;20259;-71
2023/06/30 03:30:38;;;;;;;3.03;2.33;;;;;;;;;;5096292;28;20509;-71
2023/06/30 03:33:03;;;;;;;5.82;2.38;;;;;;;;;;5096319;28;20731;-71
2023/06/30 03:35:29;;;;;;;6.78;2.70;;;;;;;;;;5096031;28;20035;-72
2023/06/30 03:37:54;;;;;;;2.72;2.22;;;;;;;;;;5095930;28;20433;-71
2023/06/30 03:40:20;;;;;;;4.50;2.73;;;;;;;;;;5095903;28;20024;-71
2023/06/30 03:42:45;;;;;;;4.90;2.30;;;;;;;;;;5095822;28;20252;-72
2023/06/30 03:45:10;;;;;;;4.55;2.50;;;;;;;;;;5094406;28;20020;-71
2023/06/30 03:47:35;;;;;;;5.95;2.45;;;;;;;;;;5095797;28;20498;-70
2023/06/30 03:50:01;;;;;;;3.63;2.40;;;;;;;;;;5095970;28;20026;-71
2023/06/30 03:52:26;;;;;;;5.05;2.53;;;;;;;;;;5094351;28;20264;-71
2023/06/30 03:54:51;;;;;;;3.25;2.30;;;;;;;;;;5095513;28;20051;-71
2023/06/30 03:57:16;;;;;;;3.72;2.55;;;;;;;;;;5096015;28;20498;-71
2023/06/30 03:59:42;;;;;;;4.53;2.47;;;;;;;;;;5095543;28;20024;-71
2023/06/30 04:02:07;;;;;;;4.53;2.40;;;;;;;;;;5094218;28;20259;-71
2023/06/30 04:04:32;;;;;;;2.80;2.40;;;;;;;;;;5095463;28;20687;-70
2023/06/30 04:06:57;;;;;;;5.78;2.38;;;;;;;;;;5094909;28;20261;-72
2023/06/30 04:09:22;;;;;;;5.50;2.67;;;;;;;;;;5093924;28;20115;-71
2023/06/30 04:11:48;;;;;;;2.87;2.40;;;;;;;;;;5093918;28;20304;-70
2023/06/30 04:14:14;;;;;;;8.60;2.50;;;;;;;;;;5093944;28;20315;-71
2023/06/30 04:16:39;;;;;;;4.05;2.58;;;;;;;;;;5095214;28;20114;-71
2023/06/30 04:19:04;;;;;;;5.55;2.85;;;;;;;;;;5095066;28;20027;-70
2023/06/30 04:21:29;;;;;;;6.03;2.83;;;;;;;;;;5095442;28;20424;-71
2023/06/30 04:23:54;;;;;;;8.07;2.80;;;;;;;;;;5095215;28;20047;-71
2023/06/30 04:26:20;;;;;;;4.50;3.00;;;;;;;;;;5094375;28;20252;-72
2023/06/30 04:28:45;;;;;;;6.43;2.70;;;;;;;;;;5095016;28;20259;-71
2023/06/30 04:31:11;;;;;;;6.57;2.97;;;;;;;;;;5095049;28;20512;-71
2023/06/30 04:33:36;;;;;;;6.73;2.70;;;;;;;;;;5095121;28;20383;-68
2023/06/30 04:36:01;;;;;;;5.85;2.83;;;;;;;;;;5093548;28;20624;-71
2023/06/30 04:38:27;;;;;;;5.97;2.67;;;;;;;;;;5093576;28;20112;-71
2023/06/30 04:40:52;;;;;;;5.72;3.22;;;;;;;;;;5095103;28;20487;-71
2023/06/30 04:43:17;;;;;;;6.77;2.93;;;;;;;;;;5094775;28;20385;-71
2023/06/30 04:45:43;;;;;;;5.33;2.70;;;;;;;;;;5094607;28;20249;-71
2023/06/30 04:48:08;;;;;;;5.23;3.10;;;;;;;;;;5094646;28;20306;-70
2023/06/30 04:50:34;;;;;;;6.45;2.80;;;;;;;;;;5093235;28;20253;-71
2023/06/30 04:53:00;;;;;;;4.18;2.90;;;;;;;;;;5093402;28;20097;-71
2023/06/30 04:55:25;;;;;;;4.53;3.43;;;;;;;;;;5094375;28;20471;-71
2023/06/30 04:57:53;;;;;;;5.67;3.33;;;;;;;;;;5094315;28;20792;-71
2023/06/30 05:00:18;;;;;;;5.25;3.28;;;;;;;;;;5093352;28;20786;-69
2023/06/30 05:02:43;;;;;;;7.00;2.90;;;;;;;;;;5094378;28;20081;-70
2023/06/30 05:05:08;;;;;;;5.13;3.10;;;;;;;;;;5094285;28;20035;-70
2023/06/30 05:07:34;;;;;;;4.73;3.20;;;;;;;;;;5093985;28;20261;-70
2023/06/30 05:09:59;;;;;;;5.90;3.27;;;;;;;;;;5094475;28;20248;-71
2023/06/30 05:12:24;;;;;;;5.20;3.25;;;;;;;;;;5095078;28;20266;-71
2023/06/30 05:14:49;;;;;;;9.25;3.40;;;;;;;;;;5093883;28;20117;-70
2023/06/30 05:17:15;;;;;;;6.30;3.38;;;;;;;;;;5094188;28;20031;-70
2023/06/30 05:19:41;;;;;;;5.97;3.28;;;;;;;;;;5094211;28;20047;-71
2023/06/30 05:22:06;;;;;;;4.40;3.33;;;;;;;;;;5094151;28;20026;-70
2023/06/30 05:24:45;;;;;;;7.00;3.17;;;;;;;;;;5093830;28;20099;-70
2023/06/30 05:27:10;;;;;;;5.10;3.35;;;;;;;;;;5094350;28;20255;-71
2023/06/30 05:29:36;;;;;;;8.18;3.65;;;;;;;;;;5092367;28;20020;-71
2023/06/30 05:32:01;;;;;;;6.93;3.33;;;;;;;;;;5094234;28;20455;-72
2023/06/30 05:34:26;;;;;;;6.15;3.40;;;;;;;;;;5093649;28;20835;-70
2023/06/30 05:36:52;;;;;;;6.55;2.97;;;;;;;;;;5093166;28;20028;-70
2023/06/30 05:39:17;;;;;;;5.70;3.03;;;;;;;;;;5091891;28;20034;-70
2023/06/30 05:41:42;;;;;;;4.10;2.97;;;;;;;;;;5093663;28;20020;-70
2023/06/30 05:44:08;;;;;;;8.87;3.07;;;;;;;;;;5093809;28;20027;-71
2023/06/30 05:46:39;;;;;;;6.93;3.13;;;;;;;;;;5093480;28;20336;-70
2023/06/30 05:49:08;;;;;;;6.28;2.70;;;;;;;;;;5093353;28;20099;-70
2023/06/30 05:51:34;;;;;;;5.05;2.60;;;;;;;;;;5092050;28;20058;-72
2023/06/30 05:54:01;;;;;;;2.80;2.50;;;;;;;;;;5093788;28;20024;-72
2023/06/30 05:56:27;;;;;;;4.10;2.60;;;;;;;;;;5093503;28;20027;-71
2023/06/30 05:58:53;;;;;;;4.72;3.00;;;;;;;;;;5093202;28;20073;-71
2023/06/30 06:01:18;;;;;;;6.70;2.80;;;;;;;;;;5093165;28;20028;-71
2023/06/30 06:03:43;;;;;;;4.75;2.67;;;;;;;;;;5093435;28;20494;-70
2023/06/30 06:06:08;;;;;;;6.37;2.70;;;;;;;;;;5092192;28;20069;-70
2023/06/30 06:08:34;;;;;;;5.73;3.00;;;;;;;;;;5091478;28;20363;-71
2023/06/30 06:10:59;;;;;;;7.40;2.65;;;;;;;;;;5093418;28;20333;-71
2023/06/30 06:13:33;;;;;;;4.72;2.47;;;;;;;;;;5092958;28;20044;-70
2023/06/30 06:15:58;;;;;;;3.80;2.65;;;;;;;;;;5091691;28;20052;-70
2023/06/30 06:18:23;;;;;;;4.93;2.67;;;;;;;;;;5092775;28;20467;-71
2023/06/30 06:20:48;;;;;;;4.73;2.67;;;;;;;;;;5093465;28;20027;-71
2023/06/30 06:23:14;;;;;;;5.40;2.93;;;;;;;;;;5092822;28;20260;-71
2023/06/30 06:25:39;;;;;;;5.30;3.30;;;;;;;;;;5092900;28;20252;-71
2023/06/30 06:28:04;;;;;;;8.87;3.20;;;;;;;;;;5092819;28;20257;-71
2023/06/30 06:30:29;;;;;;;6.83;3.10;;;;;;;;;;5093266;28;20260;-70
2023/06/30 06:32:54;;;;;;;4.83;3.10;;;;;;;;;;5092774;28;20261;-70
2023/06/30 06:35:20;;;;;;;5.67;3.13;;;;;;;;;;5092740;28;20276;-70
2023/06/30 06:37:45;;;;;;;6.73;3.10;;;;;;;;;;5091440;28;20257;-72
2023/06/30 06:40:10;;;;;;;10.27;3.10;;;;;;;;;;5092813;28;20256;-70
2023/06/30 06:42:36;;;;;;;6.70;3.42;;;;;;;;;;5092788;28;20252;-71
2023/06/30 06:45:01;;;;;;;5.20;3.23;;;;;;;;;;5092729;28;20038;-70
2023/06/30 06:48:03;;;;;;;5.97;3.05;;;;;;;;;;5092936;28;20324;-71
2023/06/30 06:50:29;;;;;;;6.30;3.28;;;;;;;;;;5096562;28;20039;-71
2023/06/30 06:52:54;;;;;;;6.40;3.50;;;;;;;;;;5096769;28;20429;-71
2023/06/30 06:55:19;;;;;;;7.00;3.03;;;;;;;;;;5097212;28;20635;-71
2023/06/30 06:57:48;;;;;;;10.43;2.83;;;;;;;;;;5096658;28;20655;-70
2023/06/30 07:00:15;;;;;;;5.90;3.20;;;;;;;;;;5096570;28;20103;-71
2023/06/30 07:02:40;;;;;;;8.00;3.30;;;;;;;;;;5096503;28;20056;-71
2023/06/30 07:05:05;;;;;;;7.60;3.57;;;;;;;;;;5096474;28;20074;-71
2023/06/30 07:07:31;;;;;;;5.68;3.63;;;;;;;;;;5096493;28;20292;-71
2023/06/30 07:09:56;;;;;;;6.87;3.23;;;;;;;;;;5095331;28;20115;-71
2023/06/30 07:12:21;;;;;;;8.43;3.47;;;;;;;;;;5096847;28;20766;-71
2023/06/30 07:14:46;;;;;;;4.83;2.97;;;;;;;;;;5095065;28;20775;-70
2023/06/30 07:17:11;;;;;;;4.83;3.10;;;;;;;;;;5096183;28;20731;-70
2023/06/30 07:19:37;;;;;;;7.67;3.50;;;;;;;;;;5096362;28;20736;-71
2023/06/30 07:22:02;;;;;;;6.20;3.03;;;;;;;;;;5096745;28;20746;-71
2023/06/30 07:24:27;;;;;;;5.35;3.50;;;;;;;;;;5096240;28;20712;-71
2023/06/30 07:26:53;;;;;;;6.17;3.37;;;;;;;;;;5096343;28;20016;-70
2023/06/30 07:29:18;;;;;;;10.48;3.17;;;;;;;;;;5094796;28;20268;-71
2023/06/30 07:31:43;;;;;;;6.33;3.23;;;;;;;;;;5094810;28;20020;-71
2023/06/30 07:34:09;;;;;;;4.80;3.17;;;;;;;;;;5096495;28;20284;-71
2023/06/30 07:36:35;;;;;;;5.57;3.00;;;;;;;;;;5095876;28;20264;-71
2023/06/30 07:39:00;;;;;;;7.15;3.15;;;;;;;;;;5095769;28;20278;-71
2023/06/30 07:41:34;;;;;;;7.72;3.33;;;;;;;;;;5095865;28;20216;-70
2023/06/30 07:43:59;;;;;;;;;;;;;;;;;;5096315;28;20023;-70
2023/06/30 07:46:24;;;;;;;4.93;3.23;;;;;;;;;;5095681;28;19914;-71
2023/06/30 07:48:50;;;;;;;8.93;3.07;;;;;;;;;;5095685;28;20027;-73
2023/06/30 07:51:15;;;;;;;9.13;3.37;;;;;;;;;;5096197;28;20275;-71
2023/06/30 07:53:40;;;;;;;7.57;3.30;;;;;;;;;;5095666;28;20272;-71
2023/06/30 07:56:05;;;;;;;7.17;3.50;;;;;;;;;;5095474;28;20283;-71
2023/06/30 07:58:31;;;;;;;6.47;3.30;;;;;;;;;;5095624;28;20773;-71
2023/06/30 08:00:56;;;;;;;7.85;3.85;;;;;;;;;;5094659;28;20292;-71
2023/06/30 08:03:21;;;;;;;10.07;3.57;;;;;;;;;;5095379;28;20037;-71
2023/06/30 08:05:47;;;;;;;5.50;3.20;;;;;;;;;;5095241;28;20341;-71
2023/06/30 08:08:12;;;;;;;4.60;3.35;;;;;;;;;;5093832;28;20275;-71
2023/06/30 08:10:37;;;;;;;5.13;3.27;;;;;;;;;;5095318;28;20054;-71
2023/06/30 08:13:02;;;;;;;5.50;3.63;;;;;;;;;;5095450;28;20262;-70
2023/06/30 08:15:27;;;;;;;7.63;3.43;;;;;;;;;;5095396;28;20307;-71
2023/06/30 08:17:53;;;;;;;7.30;3.80;;;;;;;;;;5095504;28;20032;-71
2023/06/30 08:20:18;;;;;;;5.77;3.83;;;;;;;;;;5095042;28;20313;-72
2023/06/30 08:22:43;;;;;;;6.13;3.80;;;;;;;;;;5095004;28;20799;-71
2023/06/30 08:25:08;;;;;;;6.00;3.57;;;;;;;;;;5095451;28;20778;-70
2023/06/30 08:27:33;;;;;;;8.38;3.80;;;;;;;;;;5095053;28;20288;-71
2023/06/30 08:29:59;;;;;;;6.67;3.40;;;;;;;;;;5094824;28;20024;-71
2023/06/30 08:32:24;;;;;;;9.17;3.70;;;;;;;;;;5094938;28;20255;-70
2023/06/30 08:34:49;;;;;;;5.07;3.50;;;;;;;;;;5095006;28;20304;-70
2023/06/30 08:37:14;;;;;;;7.20;3.97;;;;;;;;;;5095053;28;20314;-71
2023/06/30 08:39:39;;;;;;;5.50;3.83;;;;;;;;;;5093458;28;20261;-70
2023/06/30 08:42:06;;;;;;;8.73;4.20;;;;;;;;;;5094910;28;20301;-71
2023/06/30 08:44:32;;;;;;;6.53;3.88;;;;;;;;;;5094896;28;20798;-71
2023/06/30 08:47:00;;;;;;;8.20;4.35;;;;;;;;;;5093470;28;20073;-71
2023/06/30 08:49:27;;;;;;;5.90;4.10;;;;;;;;;;5094697;28;20045;-70
2023/06/30 08:51:57;;;;;;;6.22;3.83;;;;;;;;;;5093459;28;20028;-71
2023/06/30 08:54:30;;;;;;;9.02;4.50;;;;;;;;;;5094636;28;20024;-70
2023/06/30 08:56:57;;;;;;;7.70;4.60;;;;;;;;;;5094439;28;20028;-71
2023/06/30 08:59:22;;;;;;;11.05;4.57;;;;;;;;;;5094414;28;20024;-70
2023/06/30 09:01:48;;;;;;;11.07;4.90;;;;;;;;;;5094471;28;20359;-71
2023/06/30 09:04:14;;;;;;;6.55;4.50;;;;;;;;;;5094407;28;20031;-71
2023/06/30 09:06:48;;;;;;;6.25;4.18;;;;;;;;;;5092903;28;20424;-72
2023/06/30 09:09:25;;;;;;;6.78;4.43;;;;;;;;;;5094095;28;20024;-71
2023/06/30 09:11:51;;;;;;;9.65;4.60;;;;;;;;;;5094219;28;20031;-70
2023/06/30 09:14:19;;;;;;;9.32;5.18;;;;;;;;;;5094343;28;20028;-71
2023/06/30 09:16:45;;;;;;;7.90;4.75;;;;;;;;;;5094197;28;20047;-71
2023/06/30 09:19:13;;;;;;;10.50;4.97;;;;;;;;;;5093896;28;20052;-71
2023/06/30 09:21:39;;;;;;;7.45;5.30;;;;;;;;;;5094300;28;20031;-70
2023/06/30 09:24:04;;;;;;;7.38;4.80;;;;;;;;;;5094374;28;20028;-71
2023/06/30 09:26:30;;;;;;;6.40;4.55;;;;;;;;;;5093938;28;20020;-71
2023/06/30 09:28:56;;;;;;;8.77;5.00;;;;;;;;;;5093816;28;20343;-70
2023/06/30 09:31:29;;;;;;;8.55;5.43;;;;;;;;;;5094161;28;20020;-71
2023/06/30 09:34:06;;;;;;;11.87;5.43;;;;;;;;;;5094148;28;20020;-71
2023/06/30 09:36:31;;;;;;;7.22;5.25;;;;;;;;;;5093843;28;20028;-69
2023/06/30 09:38:57;;;;;;;8.23;4.87;;;;;;;;;;5093814;28;20028;-71
2023/06/30 09:41:25;;;;;;;6.43;4.95;;;;;;;;;;5092555;28;20272;-70
2023/06/30 09:43:56;;;;;;;8.32;5.40;;;;;;;;;;5093760;28;20043;-71
2023/06/30 09:46:21;;;;;;;9.15;5.25;;;;;;;;;;5092437;28;20031;-70
2023/06/30 09:48:47;;;;;;;9.03;5.77;;;;;;;;;;5093573;28;20103;-70
2023/06/30 09:51:19;;;;;;;8.87;5.70;;;;;;;;;;5093524;28;20257;-71
2023/06/30 09:53:44;;;;;;;13.43;5.65;;;;;;;;;;5093500;28;20310;-70
2023/06/30 09:56:19;;;;;;;8.03;5.10;;;;;;;;;;5092063;28;20032;-71
2023/06/30 09:58:45;;;;;;;8.23;5.53;;;;;;;;;;5093511;28;20265;-71
2023/06/30 10:01:11;;;;;;;9.15;5.32;;;;;;;;;;5093664;28;20030;-70
2023/06/30 10:03:49;;;;;;;8.40;5.43;;;;;;;;;;5093408;28;20028;-70
2023/06/30 10:06:17;;;;;;;9.02;5.38;;;;;;;;;;5093523;28;20568;-70
2023/06/30 10:08:45;;;;;;;12.50;5.65;;;;;;;;;;5093328;28;20067;-69
2023/06/30 10:11:10;;;;;;;8.13;5.45;;;;;;;;;;5093545;28;20497;-70
2023/06/30 10:13:37;;;;;;;8.98;4.97;;;;;;;;;;5092007;28;20024;-70
2023/06/30 10:16:04;;;;;;;11.20;5.68;;;;;;;;;;5093608;28;20024;-71
2023/06/30 10:18:32;;;;;;;10.73;5.38;;;;;;;;;;5093328;28;20032;-70
2023/06/30 10:20:58;;;;;;;8.43;5.18;;;;;;;;;;5093361;28;20020;-70
2023/06/30 10:23:24;;;;;;;9.87;5.03;;;;;;;;;;5092556;28;20023;-70
2023/06/30 10:25:50;;;;;;;10.90;5.07;;;;;;;;;;5093064;28;20327;-70
2023/06/30 10:28:16;;;;;;;7.28;5.20;;;;;;;;;;5093016;28;20096;-71
2023/06/30 10:30:42;;;;;;;11.35;5.22;;;;;;;;;;5093199;28;20051;-71
2023/06/30 10:33:07;;;;;;;11.85;5.45;;;;;;;;;;5091685;28;20078;-70
2023/06/30 10:35:34;;;;;;;7.07;5.37;;;;;;;;;;5092854;28;20081;-70
2023/06/30 10:38:00;;;;;;;9.95;5.43;;;;;;;;;;5092990;28;20320;-70
2023/06/30 10:40:26;;;;;;;9.73;5.35;;;;;;;;;;5092824;28;20107;-70
2023/06/30 10:42:54;;;;;;;9.40;5.22;;;;;;;;;;5092890;28;20039;-71
2023/06/30 10:45:20;;;;;;;9.20;5.50;;;;;;;;;;5093313;28;20390;-70
2023/06/30 10:47:50;;;;;;;8.55;5.50;;;;;;;;;;5092949;28;20030;-71
2023/06/30 10:50:16;;;;;;;9.00;5.13;;;;;;;;;;5092811;28;20028;-70
2023/06/30 10:52:48;;;;;;;9.77;5.30;;;;;;;;;;5092716;28;20487;-71
2023/06/30 10:55:13;;;;;;;10.53;5.20;;;;;;;;;;5092744;28;20034;-70
2023/06/30 10:57:39;;;;;;;11.13;5.28;;;;;;;;;;5092627;28;20028;-70
2023/06/30 11:00:07;;;;;;;10.38;5.10;;;;;;;;;;5092685;28;20030;-70
2023/06/30 11:02:37;;;;;;;6.78;5.03;;;;;;;;;;5092916;28;20024;-70
2023/06/30 11:05:21;;;;;;;8.18;5.57;;;;;;;;;;5093117;28;20483;-71
2023/06/30 11:08:06;;;;;;;9.80;5.18;;;;;;;;;;5092670;28;20044;-71
2023/06/30 11:10:31;;;;;;;8.05;5.20;;;;;;;;;;5092968;28;20024;-71
2023/06/30 11:12:57;;;;;;;12.67;4.77;;;;;;;;;;5092962;28;20388;-71
2023/06/30 11:15:34;;;;;;;8.57;4.55;;;;;;;;;;5092682;28;20020;-71
2023/06/30 11:18:01;;;;;;;7.15;4.60;;;;;;;;;;5092865;28;20034;-70
2023/06/30 11:20:27;;;;;;;9.70;5.20;;;;;;;;;;5092627;28;20546;-70
2023/06/30 11:22:58;;;;;;;9.25;5.05;;;;;;;;;;5092884;28;20055;-70
2023/06/30 11:25:24;;;;;;;8.77;5.40;;;;;;;;;;5092562;28;20536;-71
2023/06/30 11:27:50;;;;;;;8.20;5.00;;;;;;;;;;5091616;28;20024;-70
2023/06/30 11:30:18;;;;;;;6.85;4.72;;;;;;;;;;5093173;28;20058;-71
2023/06/30 11:32:44;;;;;;;8.02;4.50;;;;;;;;;;5092474;28;20031;-70
2023/06/30 11:35:12;;;;;;;12.88;4.38;;;;;;;;;;5093848;28;20028;-70
2023/06/30 11:37:37;;;;;;;7.38;4.50;;;;;;;;;;5095975;28;20027;-71
2023/06/30 11:40:06;;;;;;;7.43;4.07;;;;;;;;;;5096034;28;20510;-71
2023/06/30 11:42:36;;;;;;;8.27;4.10;;;;;;;;;;5096000;28;20325;-71
2023/06/30 11:45:02;;;;;;;5.30;3.80;;;;;;;;;;5094883;28;20413;-70
2023/06/30 11:47:27;;;;;;;6.30;4.60;;;;;;;;;;5095986;28;20030;-70
2023/06/30 11:49:53;;;;;;;7.25;4.13;;;;;;;;;;5095688;28;20134;-70
2023/06/30 11:52:19;;;;;;;6.68;4.10;;;;;;;;;;5095750;28;20047;-71
2023/06/30 11:54:45;;;;;;;10.68;3.92;;;;;;;;;;5095633;28;20078;-70
2023/06/30 11:57:11;;;;;;;12.75;4.95;;;;;;;;;;5094524;28;20433;-72
2023/06/30 11:59:37;;;;;;;7.13;4.40;;;;;;;;;;5095551;28;20028;-72
2023/06/30 12:02:03;;;;;;;10.15;4.32;;;;;;;;;;5095600;28;20024;-71
2023/06/30 12:04:33;;;;;;;7.63;4.80;;;;;;;;;;5095567;28;20032;-71
2023/06/30 12:06:58;;;;;;;7.75;4.18;;;;;;;;;;5095423;28;20505;-70
2023/06/30 12:09:23;;;;;;;6.13;3.80;;;;;;;;;;5095279;28;20032;-71
2023/06/30 12:11:49;;;;;;;6.80;4.30;;;;;;;;;;5095422;28;20020;-70
2023/06/30 12:14:17;;;;;;;12.40;4.75;;;;;;;;;;5094979;28;20334;-71
2023/06/30 12:16:49;;;;;;;5.05;3.40;;;;;;;;;;5095478;28;20501;-71
2023/06/30 12:19:15;;;;;;;6.63;3.13;;;;;;;;;;5095166;28;20046;-69
2023/06/30 12:22:00;;;;;;;6.88;3.60;;;;;;;;;;5093870;28;20494;-70
2023/06/30 12:24:32;;;;;;;6.45;3.20;;;;;;;;;;5095916;28;20012;-71
2023/06/30 12:26:58;;;;;;;5.13;3.67;;;;;;;;;;5095323;28;20107;-71
2023/06/30 12:29:23;;;;;;;6.77;4.03;;;;;;;;;;5094944;28;20074;-71
2023/06/30 12:31:49;;;;;;;7.90;3.78;;;;;;;;;;5094990;28;20256;-71
2023/06/30 12:34:33;;;;;;;5.40;3.70;;;;;;;;;;5094815;28;20379;-71
2023/06/30 12:36:59;;;;;;;6.63;4.40;;;;;;;;;;5095105;28;20390;-71
2023/06/30 12:39:24;;;;;;;5.18;4.03;;;;;;;;;;5094984;28;20032;-71
2023/06/30 12:41:50;;;;;;;6.57;3.53;;;;;;;;;;5094834;28;20031;-71
2023/06/30 12:44:15;;;;;;;5.18;3.67;;;;;;;;;;5095073;28;20104;-71
2023/06/30 12:46:41;;;;;;;9.27;3.57;;;;;;;;;;5094277;28;20020;-71
2023/06/30 12:49:06;;;;;;;4.90;3.75;;;;;;;;;;5094722;28;20256;-71
2023/06/30 12:51:31;;;;;;;8.63;3.60;;;;;;;;;;5094690;28;20027;-71
2023/06/30 12:53:58;;;;;;;5.00;3.43;;;;;;;;;;5094468;28;20047;-70
2023/06/30 12:56:23;;;;;;;6.70;3.65;;;;;;;;;;5094745;28;20257;-71
2023/06/30 12:58:49;;;;;;;5.50;3.72;;;;;;;;;;5094556;28;20479;-71
2023/06/30 13:01:14;;;;;;;8.20;3.40;;;;;;;;;;5094667;28;20027;-71
2023/06/30 13:03:39;;;;;;;9.13;3.40;;;;;;;;;;5094485;28;20042;-71
2023/06/30 13:06:04;;;;;;;5.40;3.53;;;;;;;;;;5094382;28;20057;-71
2023/06/30 13:08:30;;;;;;;5.85;3.45;;;;;;;;;;5094131;28;20039;-71
2023/06/30 13:10:55;;;;;;;4.83;3.50;;;;;;;;;;5094254;28;20060;-71
2023/06/30 13:13:20;;;;;;;5.00;3.28;;;;;;;;;;5094149;28;20046;-71
2023/06/30 13:15:45;;;;;;;7.97;3.53;;;;;;;;;;5094385;28;20039;-70
2023/06/30 13:18:10;;;;;;;4.93;3.47;;;;;;;;;;5094349;28;20368;-71
2023/06/30 13:20:37;;;;;;;5.93;3.40;;;;;;;;;;5094007;28;20490;-71
2023/06/30 13:23:02;;;;;;;4.57;3.38;;;;;;;;;;5094282;28;20019;-71
2023/06/30 13:25:27;;;;;;;4.33;3.27;;;;;;;;;;5094003;28;20016;-71
2023/06/30 13:27:52;;;;;;;4.57;3.53;;;;;;;;;;5094113;28;20120;-71
2023/06/30 13:30:17;;;;;;;7.10;3.60;;;;;;;;;;5093771;28;20094;-71
2023/06/30 13:32:43;;;;;;;6.83;3.70;;;;;;;;;;5094048;28;20121;-71
2023/06/30 13:35:09;;;;;;;4.22;3.25;;;;;;;;;;5093621;28;20318;-71
2023/06/30 13:37:34;;;;;;;9.03;3.50;;;;;;;;;;5094140;28;20130;-71
2023/06/30 13:39:59;;;;;;;6.97;3.70;;;;;;;;;;5092429;28;20067;-71
2023/06/30 13:42:24;;;;;;;7.10;4.43;;;;;;;;;;5094487;28;20051;-71
2023/06/30 13:44:50;;;;;;;6.75;4.30;;;;;;;;;;5093954;28;20318;-71
2023/06/30 13:47:16;;;;;;;15.88;5.70;;;;;;;;;;5093436;28;20027;-71
2023/06/30 13:49:41;;;;;;;7.22;4.93;;;;;;;;;;5093539;28;20024;-70
2023/06/30 13:52:06;;;;;;;7.90;5.07;;;;;;;;;;5093463;28;20031;-71
2023/06/30 13:54:34;;;;;;;13.00;4.90;;;;;;;;;;5093519;28;20269;-71
2023/06/30 13:56:59;;;;;;;30.80;6.70;;;;;;;;;;5093504;28;20027;-71
2023/06/30 13:59:24;;;;;;;14.03;5.53;;;;;;;;;;5092350;28;20024;-71
2023/06/30 14:01:49;;;;;;;14.07;6.30;;;;;;;;;;5093457;28;20328;-71
2023/06/30 14:04:15;;;;;;;13.53;6.33;;;;;;;;;;5093691;28;20103;-71
2023/06/30 14:06:40;;;;;;;11.43;7.00;;;;;;;;;;5093235;28;20808;-71
2023/06/30 14:09:09;;;;;;;12.13;6.10;;;;;;;;;;5092974;28;20635;-71
2023/06/30 14:11:34;;;;;;;12.10;6.75;;;;;;;;;;5093246;28;20260;-71
2023/06/30 14:14:03;;;;;;;11.45;6.95;;;;;;;;;;5093046;28;20016;-70
2023/06/30 14:16:28;;;;;;;11.40;6.65;;;;;;;;;;5093019;28;20020;-71
2023/06/30 14:18:53;;;;;;;11.35;7.05;;;;;;;;;;5093396;28;20386;-71
2023/06/30 14:21:19;;;;;;;10.73;7.20;;;;;;;;;;5093206;28;20447;-71
2023/06/30 14:23:44;;;;;;;9.93;6.53;;;;;;;;;;5092944;28;20265;-71
2023/06/30 14:26:09;;;;;;;10.67;6.90;;;;;;;;;;5091661;28;20279;-71
2023/06/30 14:28:34;;;;;;;11.17;6.83;;;;;;;;;;5091544;28;20028;-71
2023/06/30 14:30:59;;;;;;;13.33;7.23;;;;;;;;;;5092846;28;20275;-70
2023/06/30 14:33:25;;;;;;;10.27;6.47;;;;;;;;;;5092761;28;20335;-71
2023/06/30 14:35:50;;;;;;;11.63;6.30;;;;;;;;;;5092722;28;20388;-71